Time;durP1;ratioP1;P1;durP2;ratioP2;P2;SDS_P1;SDS_P2;PMS_P1;PMS_P2;Temp;Humidity;BMP_temperature;BMP_pressure;BME280_temperature;BME280_humidity;BME280_pressure;Samples;Min_cycle;Max_cycle;Signal;HPM_P1;HPM_P2
2022/08/16 00:02:18;;;;;;;16.73;15.02;;;23.50;88.20;;;;;;6231276;22;20148;-88
2022/08/16 00:04:43;;;;;;;16.33;14.73;;;23.50;88.20;;;;;;6308860;22;20643;-86
2022/08/16 00:07:09;;;;;;;16.55;14.95;;;23.50;88.10;;;;;;6281846;22;20183;-86
2022/08/16 00:09:35;;;;;;;16.98;15.27;;;23.50;88.10;;;;;;6256882;22;20136;-86
2022/08/16 00:12:00;;;;;;;16.52;14.85;;;23.50;88.00;;;;;;6281553;22;20226;-86
2022/08/16 00:14:28;;;;;;;15.18;13.68;;;23.50;88.10;;;;;;6231440;22;20167;-86
2022/08/16 00:16:54;;;;;;;16.85;15.15;;;23.60;88.20;;;;;;6256650;22;20279;-87
2022/08/16 00:19:22;;;;;;;17.10;15.40;;;23.50;88.10;;;;;;6256192;22;20175;-86
2022/08/16 00:21:48;;;;;;;16.40;14.80;;;23.60;88.20;;;;;;6256349;22;20152;-86
2022/08/16 00:24:15;;;;;;;17.08;15.38;;;23.50;88.10;;;;;;6281701;22;20628;-87
2022/08/16 00:26:42;;;;;;;17.17;15.48;;;23.50;88.10;;;;;;6281385;22;20641;-87
2022/08/16 00:29:07;;;;;;;16.73;15.13;;;23.50;88.10;;;;;;6256274;22;20574;-85
2022/08/16 00:31:33;;;;;;;16.50;14.90;;;23.50;88.30;;;;;;6230496;22;20144;-86
2022/08/16 00:33:59;;;;;;;16.33;14.73;;;23.50;88.20;;;;;;6230603;22;20144;-88
2022/08/16 00:36:25;;;;;;;15.60;14.05;;;23.50;88.10;;;;;;6281771;22;20133;-86
2022/08/16 00:38:50;;;;;;;16.75;15.05;;;23.50;88.20;;;;;;6256171;22;20150;-86
2022/08/16 00:41:16;;;;;;;16.58;14.95;;;23.50;88.20;;;;;;6281467;22;20133;-87
2022/08/16 00:43:42;;;;;;;16.60;15.00;;;23.50;88.30;;;;;;6255726;22;20189;-86
2022/08/16 00:46:21;;;;;;;16.23;14.52;;;23.50;88.30;;;;;;6255500;22;20175;-86
2022/08/16 00:48:49;;;;;;;16.17;14.68;;;23.50;88.30;;;;;;6230962;22;20168;-86
2022/08/16 00:51:15;;;;;;;17.20;15.40;;;23.50;88.30;;;;;;6256357;22;20125;-87
2022/08/16 00:53:41;;;;;;;16.80;15.10;;;23.50;88.30;;;;;;6230520;22;20479;-87
2022/08/16 00:56:10;;;;;;;16.98;15.20;;;23.40;88.10;;;;;;6281295;22;20128;-86
2022/08/16 00:58:38;;;;;;;16.20;14.60;;;23.50;88.30;;;;;;6255994;22;20135;-86
2022/08/16 01:01:05;;;;;;;16.95;15.27;;;23.50;88.30;;;;;;6232007;22;20147;-86
2022/08/16 01:03:31;;;;;;;16.90;15.20;;;23.50;88.10;;;;;;6256001;22;20137;-86
2022/08/16 01:05:56;;;;;;;16.63;14.93;;;23.40;88.20;;;;;;6230491;22;20559;-86
2022/08/16 01:08:23;;;;;;;16.63;15.02;;;23.40;88.30;;;;;;6255565;22;20209;-87
2022/08/16 01:10:49;;;;;;;15.57;14.07;;;23.50;88.40;;;;;;6255805;22;20575;-86
2022/08/16 01:13:18;;;;;;;16.23;14.52;;;23.50;88.40;;;;;;6255582;22;20132;-86
2022/08/16 01:15:46;;;;;;;16.25;14.65;;;23.40;88.30;;;;;;6231515;22;20281;-86
2022/08/16 01:18:16;;;;;;;17.48;15.68;;;23.50;88.40;;;;;;6256051;22;20507;-87
2022/08/16 01:20:43;;;;;;;16.60;14.98;;;23.50;88.30;;;;;;6281820;22;20129;-87
2022/08/16 01:23:13;;;;;;;16.30;14.63;;;23.50;88.30;;;;;;6255894;22;20143;-87
2022/08/16 01:25:41;;;;;;;16.13;14.55;;;23.50;88.20;;;;;;6255567;22;20187;-87
2022/08/16 01:28:10;;;;;;;16.52;14.90;;;23.50;88.30;;;;;;6255631;22;20206;-86
2022/08/16 01:30:38;;;;;;;16.65;14.95;;;23.50;88.40;;;;;;6231304;22;20144;-86
2022/08/16 01:33:05;;;;;;;16.98;15.27;;;23.40;88.30;;;;;;6230555;22;20563;-87
2022/08/16 01:35:37;;;;;;;16.70;15.02;;;23.40;88.30;;;;;;6230378;22;20144;-87
2022/08/16 01:38:24;;;;;;;17.58;15.77;;;23.40;88.30;;;;;;6281613;22;20156;-86
2022/08/16 01:40:52;;;;;;;16.92;15.23;;;23.40;88.30;;;;;;6255161;22;20156;-87
2022/08/16 01:43:18;;;;;;;16.23;14.63;;;23.40;88.30;;;;;;6230249;22;20148;-86
2022/08/16 01:45:44;;;;;;;16.58;14.88;;;23.40;88.30;;;;;;6255665;22;20575;-86
2022/08/16 01:48:10;;;;;;;16.00;14.40;;;23.40;88.30;;;;;;6254963;22;20182;-86
2022/08/16 01:50:36;;;;;;;16.42;14.82;;;23.40;88.30;;;;;;6255367;22;20155;-85
2022/08/16 01:53:02;;;;;;;16.55;14.95;;;23.40;88.30;;;;;;6230366;22;20143;-86
2022/08/16 01:55:28;;;;;;;15.90;14.20;;;23.40;88.20;;;;;;6255112;22;20133;-87
2022/08/16 01:57:53;;;;;;;16.33;14.73;;;23.40;88.30;;;;;;6280776;22;20208;-87
2022/08/16 02:00:19;;;;;;;17.13;15.43;;;23.40;88.30;;;;;;6254693;22;20171;-86
2022/08/16 02:02:44;;;;;;;16.42;14.73;;;23.40;88.10;;;;;;6280583;22;20159;-86
2022/08/16 02:05:10;;;;;;;16.58;14.88;;;23.30;88.20;;;;;;6255234;22;20132;-87
2022/08/16 02:07:37;;;;;;;16.92;15.23;;;23.40;89.20;;;;;;6230176;22;20492;-86
2022/08/16 02:10:05;;;;;;;16.13;14.52;;;23.40;88.40;;;;;;6280794;22;20128;-87
2022/08/16 02:12:31;;;;;;;17.15;15.45;;;23.40;88.30;;;;;;6230169;22;20144;-86
2022/08/16 02:14:57;;;;;;;16.50;14.90;;;23.40;88.40;;;;;;6255480;22;20132;-86
2022/08/16 02:17:23;;;;;;;15.73;14.13;;;23.40;88.30;;;;;;6280643;22;20171;-87
2022/08/16 02:19:50;;;;;;;16.42;14.73;;;23.40;88.30;;;;;;6229529;22;20144;-86
2022/08/16 02:22:18;;;;;;;16.45;14.85;;;23.40;88.40;;;;;;6255243;22;20602;-87
2022/08/16 02:24:44;;;;;;;16.73;15.02;;;23.30;88.30;;;;;;6229985;22;20152;-86
2022/08/16 02:27:09;;;;;;;16.55;14.95;;;23.30;88.20;;;;;;6229308;22;20521;-86
2022/08/16 02:29:35;;;;;;;16.30;14.63;;;23.40;88.40;;;;;;6229675;22;20197;-88
2022/08/16 02:32:01;;;;;;;16.80;15.10;;;23.40;88.40;;;;;;6280561;22;20168;-87
2022/08/16 02:34:27;;;;;;;16.15;14.55;;;23.30;88.30;;;;;;6229726;22;20140;-86
2022/08/16 02:36:52;;;;;;;16.90;15.20;;;23.40;88.40;;;;;;6307758;22;20282;-86
2022/08/16 02:39:19;;;;;;;16.80;15.07;;;23.30;88.40;;;;;;6254831;22;20152;-86
2022/08/16 02:41:45;;;;;;;16.75;15.13;;;23.40;88.40;;;;;;6229672;22;20202;-87
2022/08/16 02:44:11;;;;;;;16.38;14.77;;;23.40;88.30;;;;;;6254971;22;20158;-86
2022/08/16 02:46:37;;;;;;;16.73;15.02;;;23.40;88.40;;;;;;6255230;22;20148;-86
2022/08/16 02:49:03;;;;;;;16.85;15.15;;;23.40;88.40;;;;;;6229518;22;20151;-85
2022/08/16 02:51:29;;;;;;;16.48;14.88;;;23.30;88.30;;;;;;6254912;22;20140;-86
2022/08/16 02:53:55;;;;;;;17.55;15.40;;;23.30;88.40;;;;;;6280194;22;20136;-86
2022/08/16 02:56:20;;;;;;;16.73;14.93;;;23.30;88.40;;;;;;6280353;22;20139;-86
2022/08/16 02:58:48;;;;;;;17.23;15.52;;;23.30;88.50;;;;;;6229375;22;20223;-86
2022/08/16 03:01:16;;;;;;;17.13;15.43;;;23.30;88.50;;;;;;6229801;22;20156;-85
2022/08/16 03:03:42;;;;;;;16.60;14.90;;;23.30;88.40;;;;;;6229886;22;20144;-86
2022/08/16 03:06:08;;;;;;;16.60;15.00;;;23.30;88.30;;;;;;6255186;22;20227;-87
2022/08/16 03:08:33;;;;;;;16.35;14.75;;;23.30;88.30;;;;;;6230353;22;20606;-87
2022/08/16 03:10:59;;;;;;;17.80;16.00;;;23.30;88.30;;;;;;6282266;22;20479;-86
2022/08/16 03:13:26;;;;;;;17.15;15.35;;;23.30;88.40;;;;;;6256734;22;20136;-86
2022/08/16 03:15:52;;;;;;;16.88;15.13;;;23.30;88.50;;;;;;6232611;22;20589;-86
2022/08/16 03:18:17;;;;;;;17.70;15.90;;;23.30;88.40;;;;;;6256558;22;20211;-87
2022/08/16 03:20:43;;;;;;;17.02;15.35;;;23.30;88.40;;;;;;6282631;22;20455;-87
2022/08/16 03:23:09;;;;;;;17.15;15.45;;;23.30;88.50;;;;;;6282207;22;20506;-87
2022/08/16 03:25:35;;;;;;;16.52;14.93;;;23.30;88.70;;;;;;6256373;22;20222;-87
2022/08/16 03:28:01;;;;;;;17.55;15.75;;;23.30;88.50;;;;;;6231396;22;20617;-87
2022/08/16 03:30:29;;;;;;;16.70;15.00;;;23.30;88.50;;;;;;6256943;22;20128;-87
2022/08/16 03:32:55;;;;;;;17.00;15.32;;;23.30;88.70;;;;;;6256858;22;20138;-85
2022/08/16 03:35:22;;;;;;;16.52;14.93;;;23.30;88.70;;;;;;6281994;22;20152;-86
2022/08/16 03:37:49;;;;;;;16.23;14.50;;;23.30;88.50;;;;;;6232491;22;20152;-87
2022/08/16 03:40:15;;;;;;;17.25;15.50;;;23.30;88.50;;;;;;6281768;22;20563;-86
2022/08/16 03:42:40;;;;;;;16.75;15.05;;;23.30;88.50;;;;;;6256433;22;20184;-87
2022/08/16 03:45:07;;;;;;;16.98;15.27;;;23.30;88.40;;;;;;6281870;22;20156;-86
2022/08/16 03:47:33;;;;;;;17.20;15.50;;;23.30;88.50;;;;;;6256264;22;20631;-86
2022/08/16 03:50:00;;;;;;;17.33;15.52;;;23.30;88.50;;;;;;6282146;22;20299;-86
2022/08/16 03:52:25;;;;;;;16.95;15.25;;;23.30;88.40;;;;;;6256822;22;20132;-86
2022/08/16 03:54:51;;;;;;;16.58;14.95;;;23.30;88.30;;;;;;6256158;22;20148;-86
2022/08/16 03:57:17;;;;;;;16.90;15.20;;;23.30;88.40;;;;;;6256832;22;20194;-87
2022/08/16 03:59:43;;;;;;;16.10;14.50;;;23.30;88.40;;;;;;6231592;22;20155;-85
2022/08/16 04:02:10;;;;;;;16.98;15.27;;;23.30;88.30;;;;;;6231552;22;20566;-88
2022/08/16 04:04:36;;;;;;;16.85;15.13;;;23.30;88.30;;;;;;6256962;22;20155;-86
2022/08/16 04:07:03;;;;;;;16.85;15.18;;;23.30;88.30;;;;;;6281834;22;20255;-86
2022/08/16 04:09:30;;;;;;;17.20;15.50;;;23.30;88.30;;;;;;6231154;22;20154;-86
2022/08/16 04:11:56;;;;;;;16.60;14.90;;;23.30;88.30;;;;;;6256582;22;20615;-87
2022/08/16 04:14:22;;;;;;;16.60;14.90;;;23.30;88.30;;;;;;6256204;22;20152;-86
2022/08/16 04:16:47;;;;;;;15.88;14.27;;;23.30;88.00;;;;;;6281792;22;20168;-86
2022/08/16 04:19:13;;;;;;;16.40;14.57;;;23.30;88.00;;;;;;6255892;22;20140;-85
2022/08/16 04:21:39;;;;;;;15.70;14.18;;;23.30;88.00;;;;;;6282097;22;20132;-87
2022/08/16 04:24:05;;;;;;;16.73;15.05;;;23.30;88.00;;;;;;6281543;22;20124;-87
2022/08/16 04:26:30;;;;;;;16.85;15.15;;;23.30;87.90;;;;;;6230619;22;20209;-87
2022/08/16 04:28:57;;;;;;;15.55;14.05;;;23.40;87.80;;;;;;6256062;22;20176;-85
2022/08/16 04:31:22;;;;;;;16.02;14.38;;;23.30;87.70;;;;;;6256076;22;20238;-87
2022/08/16 04:33:48;;;;;;;16.30;14.70;;;23.30;87.80;;;;;;6230629;22;20183;-86
2022/08/16 04:36:14;;;;;;;15.68;14.13;;;23.30;87.60;;;;;;6256346;22;20151;-86
2022/08/16 04:38:40;;;;;;;16.10;14.40;;;23.30;87.80;;;;;;6256033;22;20137;-86
2022/08/16 04:41:05;;;;;;;15.85;14.25;;;23.30;87.80;;;;;;6255933;22;20164;-86
2022/08/16 04:43:32;;;;;;;16.17;14.48;;;23.30;87.90;;;;;;6255728;22;20158;-87
2022/08/16 04:45:59;;;;;;;16.35;14.65;;;23.30;87.80;;;;;;6231429;22;20181;-86
2022/08/16 04:48:24;;;;;;;16.17;14.55;;;23.30;88.00;;;;;;6255866;22;20171;-87
2022/08/16 04:50:50;;;;;;;16.00;14.40;;;23.30;88.00;;;;;;6255912;22;20155;-87
2022/08/16 04:53:16;;;;;;;16.55;14.88;;;23.30;88.00;;;;;;6231116;22;20154;-86
2022/08/16 04:55:43;;;;;;;16.02;14.32;;;23.30;88.20;;;;;;6255798;22;20128;-85
2022/08/16 04:58:09;;;;;;;16.73;15.02;;;23.30;88.30;;;;;;6281603;22;20139;-85
2022/08/16 05:00:34;;;;;;;16.67;14.98;;;23.30;88.10;;;;;;6281411;22;20179;-87
2022/08/16 05:03:04;;;;;;;16.38;14.77;;;23.30;88.30;;;;;;6230567;22;20151;-86
2022/08/16 05:05:30;;;;;;;16.50;14.88;;;23.30;88.20;;;;;;6231648;22;20654;-87
2022/08/16 05:07:56;;;;;;;15.88;14.27;;;23.30;88.00;;;;;;6280963;22;20191;-86
2022/08/16 05:10:22;;;;;;;16.58;14.88;;;23.30;88.30;;;;;;6308467;22;20162;-85
2022/08/16 05:12:47;;;;;;;15.27;13.70;;;23.40;88.10;;;;;;6281310;22;20152;-86
2022/08/16 05:15:13;;;;;;;14.68;13.18;;;23.40;88.00;;;;;;6280818;22;20575;-86
2022/08/16 05:17:39;;;;;;;14.95;13.45;;;23.50;87.90;;;;;;6281188;22;20568;-86
2022/08/16 05:20:06;;;;;;;15.02;13.52;;;23.50;87.80;;;;;;6230417;22;20148;-87
2022/08/16 05:22:34;;;;;;;14.40;12.90;;;23.50;87.80;;;;;;6230261;22;20201;-86
2022/08/16 05:25:00;;;;;;;14.98;13.38;;;23.50;87.80;;;;;;6231003;22;20148;-86
2022/08/16 05:27:25;;;;;;;14.65;13.25;;;23.50;87.50;;;;;;6281191;22;20168;-87
2022/08/16 05:29:51;;;;;;;15.10;13.60;;;23.50;87.80;;;;;;6280878;22;20128;-85
2022/08/16 05:32:17;;;;;;;15.57;13.88;;;23.50;87.90;;;;;;6280791;22;20132;-86
2022/08/16 05:34:43;;;;;;;15.45;13.95;;;23.50;87.80;;;;;;6280821;22;20133;-87
2022/08/16 05:37:08;;;;;;;15.90;14.30;;;23.50;88.00;;;;;;6280812;22;20208;-86
2022/08/16 05:39:34;;;;;;;15.55;13.95;;;23.50;88.30;;;;;;6229958;22;20234;-86
2022/08/16 05:42:00;;;;;;;14.63;13.23;;;23.50;88.50;;;;;;6255782;22;20151;-86
2022/08/16 05:44:26;;;;;;;14.30;12.80;;;23.60;88.50;;;;;;6280870;22;20132;-87
2022/08/16 05:46:53;;;;;;;15.55;13.95;;;23.50;88.90;;;;;;6230445;22;20568;-86
2022/08/16 05:49:19;;;;;;;14.52;13.02;;;23.60;88.50;;;;;;6230410;22;20152;-85
2022/08/16 05:51:44;;;;;;;14.07;12.63;;;23.60;88.70;;;;;;6230181;22;20567;-86
2022/08/16 05:54:11;;;;;;;14.50;13.10;;;23.60;88.80;;;;;;6229866;22;20571;-86
2022/08/16 05:56:38;;;;;;;14.63;13.23;;;23.70;88.30;;;;;;6230493;22;20471;-86
2022/08/16 05:59:04;;;;;;;15.15;13.65;;;23.60;88.50;;;;;;6230908;22;20475;-88
2022/08/16 06:01:30;;;;;;;14.50;13.00;;;23.70;88.50;;;;;;6229930;22;20227;-87
2022/08/16 06:03:55;;;;;;;13.80;12.30;;;23.60;89.20;;;;;;6254940;22;20202;-86
2022/08/16 06:06:21;;;;;;;14.95;13.35;;;23.50;89.70;;;;;;6255136;22;20163;-87
2022/08/16 06:08:46;;;;;;;14.45;12.95;;;23.60;89.30;;;;;;6280824;22;20186;-86
2022/08/16 06:11:12;;;;;;;14.13;12.63;;;23.60;89.20;;;;;;6280632;22;20139;-87
2022/08/16 06:13:38;;;;;;;14.27;12.77;;;23.60;89.10;;;;;;6256000;22;20133;-86
2022/08/16 06:16:04;;;;;;;12.95;11.65;;;23.70;88.90;;;;;;6230766;22;20176;-86
2022/08/16 06:18:30;;;;;;;14.13;12.63;;;23.80;88.70;;;;;;6230301;22;20159;-85
2022/08/16 06:20:56;;;;;;;14.75;13.20;;;23.80;88.70;;;;;;6280927;22;20132;-87
2022/08/16 06:23:22;;;;;;;14.32;12.82;;;23.90;88.60;;;;;;6281382;22;20201;-86
2022/08/16 06:25:48;;;;;;;14.20;12.73;;;23.80;88.90;;;;;;6229901;22;20642;-88
2022/08/16 06:28:13;;;;;;;14.68;13.18;;;23.70;89.40;;;;;;6255471;22;20176;-86
2022/08/16 06:30:39;;;;;;;13.60;12.20;;;23.70;89.50;;;;;;6255367;22;20568;-88
2022/08/16 06:33:05;;;;;;;13.68;12.25;;;23.80;89.60;;;;;;6230717;22;20155;-87
2022/08/16 06:35:31;;;;;;;13.13;11.82;;;23.80;89.30;;;;;;6255033;22;20154;-87
2022/08/16 06:37:56;;;;;;;14.27;12.80;;;23.80;89.50;;;;;;6255007;22;20158;-87
2022/08/16 06:40:23;;;;;;;14.07;12.57;;;23.80;89.70;;;;;;6230077;22;20152;-87
2022/08/16 06:42:52;;;;;;;14.75;13.18;;;23.70;89.90;;;;;;6280195;22;20179;-88
2022/08/16 06:45:18;;;;;;;14.02;12.52;;;23.80;90.00;;;;;;6256271;22;20269;-86
2022/08/16 06:47:44;;;;;;;13.15;11.77;;;23.80;90.00;;;;;;6230447;22;20221;-87
2022/08/16 06:50:10;;;;;;;13.02;11.73;;;23.90;89.90;;;;;;6231011;22;20147;-87
2022/08/16 06:52:36;;;;;;;14.10;12.70;;;23.90;89.80;;;;;;6257495;22;20133;-86
2022/08/16 06:55:04;;;;;;;13.73;12.32;;;23.90;89.70;;;;;;6256163;22;20247;-87
2022/08/16 06:57:29;;;;;;;14.07;12.57;;;23.80;90.00;;;;;;6255920;22;20135;-87
2022/08/16 06:59:55;;;;;;;14.88;13.27;;;23.80;90.30;;;;;;6229889;22;20148;-87
2022/08/16 07:02:21;;;;;;;14.38;12.88;;;23.80;90.40;;;;;;6281811;22;20617;-86
2022/08/16 07:04:46;;;;;;;14.13;12.73;;;23.80;90.60;;;;;;6280865;22;20238;-85
2022/08/16 07:07:12;;;;;;;14.95;13.07;;;23.80;90.50;;;;;;6255351;22;20183;-85
2022/08/16 07:09:38;;;;;;;14.45;12.93;;;23.80;90.40;;;;;;6281441;22;20144;-87
2022/08/16 07:12:06;;;;;;;14.60;12.93;;;23.90;90.30;;;;;;6281800;22;20140;-86
2022/08/16 07:14:32;;;;;;;15.40;13.38;;;23.90;90.40;;;;;;6256074;22;20155;-87
2022/08/16 07:16:59;;;;;;;14.88;13.27;;;23.90;90.50;;;;;;6280427;22;20259;-86
2022/08/16 07:19:25;;;;;;;14.77;13.18;;;23.90;90.40;;;;;;6280619;22;20179;-87
2022/08/16 07:21:51;;;;;;;15.25;13.65;;;24.00;90.30;;;;;;6255185;22;20198;-87
2022/08/16 07:24:17;;;;;;;14.25;12.45;;;24.00;90.30;;;;;;6255294;22;20156;-87
2022/08/16 07:26:43;;;;;;;14.70;13.15;;;24.00;90.30;;;;;;6280944;22;20232;-86
2022/08/16 07:29:12;;;;;;;14.55;12.95;;;23.90;90.30;;;;;;6231774;22;20201;-87
2022/08/16 07:32:20;;;;;;;;;;;;;;;;;;;;;
2022/08/16 07:34:54;;;;;;;13.32;11.93;;;24.00;90.50;;;;;;6126818;23;20236;-89
2022/08/16 07:37:53;;;;;;;14.35;12.70;;;24.10;90.30;;;;;;6076817;23;20183;-88
2022/08/16 07:40:24;;;;;;;14.73;13.13;;;24.10;90.00;;;;;;6105130;23;20231;-88
2022/08/16 07:42:53;;;;;;;14.60;13.00;;;24.00;90.20;;;;;;6081196;23;20180;-90
2022/08/16 07:45:32;;;;;;;14.93;13.32;;;24.10;90.20;;;;;;6055369;23;20772;-90
2022/08/16 07:48:20;;;;;;;14.13;12.55;;;24.10;90.20;;;;;;5954707;24;20661;-88
2022/08/16 08:21:11;;;;;;;14.23;12.60;;;24.30;89.50;;;;;;5986006;23;20151;-88
2022/08/16 08:24:28;;;;;;;;;;;;;;;;;;;;;
2022/08/16 08:27:26;;;;;;;15.38;13.68;;;24.30;89.60;;;;;;6047750;23;20284;-89
2022/08/16 08:33:21;;;;;;;;;;;;;;;;;;;;;
2022/08/16 08:35:47;;;;;;;14.38;12.90;;;24.50;88.60;;;;;;6092752;23;20237;-88
2022/08/16 08:38:15;;;;;;;15.95;13.35;;;24.50;88.00;;;;;;6095999;23;20554;-87
2022/08/16 08:40:46;;;;;;;15.00;13.40;;;24.50;88.70;;;;;;6071960;23;20208;-89
2022/08/16 08:43:16;;;;;;;15.40;13.80;;;24.40;89.00;;;;;;6095568;23;20239;-88
2022/08/16 08:45:41;;;;;;;14.10;12.60;;;24.30;89.20;;;;;;6072425;23;20489;-88
2022/08/16 08:48:10;;;;;;;15.13;13.52;;;24.30;89.30;;;;;;6095681;23;20176;-88
2022/08/16 08:50:42;;;;;;;14.60;12.93;;;24.40;88.90;;;;;;6037744;23;20154;-88
2022/08/16 08:53:15;;;;;;;15.57;13.82;;;24.50;88.50;;;;;;6003838;23;20164;-88
2022/08/16 08:55:48;;;;;;;15.05;13.45;;;24.40;88.30;;;;;;6005667;23;20631;-89
2022/08/16 08:58:25;;;;;;;13.88;12.40;;;24.50;88.40;;;;;;6007744;23;20159;-89
2022/08/16 09:04:34;;;;;;;15.13;13.52;;;24.50;88.00;;;;;;6034498;23;20162;-89
2022/08/16 09:07:20;;;;;;;14.55;12.95;;;24.50;87.80;;;;;;6009589;23;20238;-89
2022/08/16 09:10:06;;;;;;;14.52;12.98;;;24.50;87.90;;;;;;6010391;23;20154;-90
2022/08/16 09:12:45;;;;;;;15.98;13.90;;;24.50;87.90;;;;;;5958678;24;20155;-89
2022/08/16 09:15:19;;;;;;;14.57;13.02;;;24.50;87.60;;;;;;5956395;24;20227;-89
2022/08/16 09:18:17;;;;;;;15.05;13.18;;;24.60;87.40;;;;;;5921574;24;20164;-89
2022/08/16 09:23:52;;;;;;;15.50;13.75;;;24.50;87.90;;;;;;5884113;24;20195;-91
2022/08/16 09:27:03;;;;;;;14.25;12.75;;;24.50;87.80;;;;;;5876221;24;20208;-90
2022/08/16 09:41:02;;;;;;;16.08;14.00;;;24.60;87.20;;;;;;5924498;23;20157;-88
2022/08/16 09:43:47;;;;;;;14.38;12.82;;;24.50;87.50;;;;;;5939998;24;20619;-89
2022/08/16 09:49:26;;;;;;;15.10;13.48;;;24.50;86.90;;;;;;5932007;24;20625;-89
2022/08/16 09:55:53;;;;;;;;;;;;;;;;;;;;;
2022/08/16 09:58:11;;;;;;;14.95;13.10;;;24.50;87.50;;;;;;6001297;23;20591;-87
2022/08/16 12:22:26;;;;;;;14.25;12.35;;;24.80;81.60;;;;;;6272810;22;20223;-88
2022/08/16 12:24:54;;;;;;;15.95;12.52;;;24.80;81.60;;;;;;6190142;23;20161;-89
2022/08/16 12:27:22;;;;;;;14.35;12.70;;;24.80;81.60;;;;;;6171893;23;20173;-88
2022/08/16 12:29:52;;;;;;;14.27;12.77;;;24.80;81.50;;;;;;6171577;23;20172;-88
2022/08/16 12:32:19;;;;;;;15.20;13.55;;;24.90;81.30;;;;;;6170543;23;20148;-88
2022/08/16 12:34:51;;;;;;;14.68;13.18;;;24.90;81.10;;;;;;6170711;23;20149;-88
2022/08/16 12:37:17;;;;;;;13.98;12.50;;;24.80;81.00;;;;;;6167085;23;20151;-88
2022/08/16 12:39:43;;;;;;;14.35;12.85;;;24.90;80.70;;;;;;6220174;23;20203;-88
2022/08/16 12:42:18;;;;;;;14.50;13.00;;;24.90;80.90;;;;;;6153727;23;20162;-88
2022/08/16 12:45:10;;;;;;;14.98;13.38;;;24.90;80.90;;;;;;6149478;23;20657;-89
2022/08/16 12:50:19;;;;;;;14.73;13.13;;;24.90;80.70;;;;;;6162347;23;20606;-88
2022/08/16 12:52:52;;;;;;;14.10;12.60;;;24.90;80.80;;;;;;6159295;23;20151;-87
2022/08/16 12:55:22;;;;;;;14.27;12.77;;;24.80;80.90;;;;;;6134721;23;20637;-86
2022/08/16 12:57:56;;;;;;;14.57;13.07;;;24.90;80.90;;;;;;6160439;23;20185;-88
2022/08/16 13:00:31;;;;;;;13.82;12.43;;;24.80;80.70;;;;;;6159088;23;20591;-87
2022/08/16 13:02:58;;;;;;;14.32;12.43;;;24.80;80.80;;;;;;6136357;23;20205;-87
2022/08/16 13:05:30;;;;;;;14.00;12.50;;;24.90;80.70;;;;;;6135423;23;20155;-87
2022/08/16 13:07:57;;;;;;;13.30;11.90;;;24.90;80.40;;;;;;6164775;23;20523;-87
2022/08/16 13:10:24;;;;;;;14.52;13.02;;;24.90;79.80;;;;;;6160485;23;20171;-88
2022/08/16 13:12:54;;;;;;;13.90;12.45;;;24.90;79.70;;;;;;6176960;23;20149;-88
2022/08/16 13:15:25;;;;;;;14.43;12.90;;;24.90;79.70;;;;;;6195318;23;20477;-88
2022/08/16 13:17:58;;;;;;;13.93;12.52;;;24.90;79.00;;;;;;6170043;23;20152;-88
2022/08/16 13:20:28;;;;;;;15.27;13.50;;;25.00;78.60;;;;;;6144892;23;20154;-87
2022/08/16 13:23:04;;;;;;;14.40;12.85;;;25.00;78.80;;;;;;6173500;23;20193;-86
2022/08/16 13:25:32;;;;;;;14.38;12.93;;;25.00;78.60;;;;;;6134796;23;20155;-87
2022/08/16 13:27:58;;;;;;;14.65;13.15;;;25.00;78.80;;;;;;6158688;23;20692;-87
2022/08/16 13:30:25;;;;;;;14.07;12.60;;;25.00;78.70;;;;;;6109460;23;20154;-86
2022/08/16 13:32:56;;;;;;;14.73;13.23;;;25.00;78.70;;;;;;6136110;23;20574;-87
2022/08/16 13:35:22;;;;;;;13.77;12.32;;;24.90;79.00;;;;;;6137834;23;20166;-86
2022/08/16 13:38:06;;;;;;;13.88;12.38;;;25.00;78.90;;;;;;6135780;23;20143;-88
2022/08/16 13:40:47;;;;;;;13.93;12.43;;;25.00;78.80;;;;;;6160636;23;20147;-87
2022/08/16 13:43:13;;;;;;;14.43;12.93;;;24.90;78.80;;;;;;6183410;23;20245;-87
2022/08/16 13:45:39;;;;;;;13.75;12.32;;;25.00;78.50;;;;;;6110005;23;20159;-88
2022/08/16 13:48:05;;;;;;;14.23;12.73;;;25.00;78.60;;;;;;6158683;23;20530;-89
2022/08/16 13:50:32;;;;;;;14.02;12.63;;;25.00;78.50;;;;;;6158289;23;20158;-87
2022/08/16 13:53:04;;;;;;;14.13;12.63;;;25.00;78.50;;;;;;6158422;23;20139;-88
2022/08/16 13:55:29;;;;;;;14.18;12.77;;;25.00;78.50;;;;;;6188852;23;20135;-88
2022/08/16 13:57:55;;;;;;;14.68;13.13;;;25.00;78.50;;;;;;6195328;23;20211;-88
2022/08/16 14:00:21;;;;;;;16.65;13.77;;;25.00;78.50;;;;;;6195764;23;20169;-87
2022/08/16 14:02:47;;;;;;;13.80;12.40;;;24.90;78.70;;;;;;6183844;23;20602;-88
2022/08/16 14:05:13;;;;;;;13.43;11.88;;;25.00;78.80;;;;;;6135659;23;20158;-87
2022/08/16 14:07:39;;;;;;;14.18;12.70;;;25.00;78.70;;;;;;6159429;23;20233;-87
2022/08/16 14:10:06;;;;;;;14.45;12.95;;;25.00;78.30;;;;;;6135392;23;20154;-88
2022/08/16 14:12:36;;;;;;;13.90;12.48;;;24.90;78.30;;;;;;6135305;23;20158;-88
2022/08/16 14:15:07;;;;;;;16.48;14.07;;;25.00;78.70;;;;;;6136037;23;20177;-87
2022/08/16 14:17:33;;;;;;;14.07;12.65;;;24.90;78.80;;;;;;6077434;23;20651;-87
2022/08/16 14:20:04;;;;;;;15.00;13.40;;;24.90;78.80;;;;;;6100619;23;20155;-87
2022/08/16 14:22:38;;;;;;;14.43;12.93;;;24.90;79.00;;;;;;6045271;23;20161;-86
2022/08/16 14:25:07;;;;;;;14.65;13.02;;;24.90;79.30;;;;;;6038381;23;20190;-87
2022/08/16 14:27:39;;;;;;;14.60;13.05;;;24.90;79.30;;;;;;5991569;23;20289;-87
2022/08/16 14:30:09;;;;;;;14.45;12.95;;;24.90;79.40;;;;;;5936874;24;20181;-88
2022/08/16 14:32:36;;;;;;;14.55;13.00;;;24.90;79.40;;;;;;5935519;23;20170;-87
2022/08/16 14:35:05;;;;;;;15.45;13.52;;;24.90;79.30;;;;;;5962159;23;20190;-87
2022/08/16 14:37:31;;;;;;;14.85;13.25;;;24.90;78.90;;;;;;5962152;23;20197;-87
2022/08/16 14:39:57;;;;;;;15.43;13.82;;;24.90;79.00;;;;;;5962131;23;20184;-87
2022/08/16 14:42:23;;;;;;;17.02;13.70;;;24.90;79.00;;;;;;5962137;23;20218;-87
2022/08/16 14:44:49;;;;;;;14.32;12.82;;;24.90;78.90;;;;;;5985299;23;20182;-88
2022/08/16 14:47:15;;;;;;;14.00;12.55;;;24.90;78.90;;;;;;6008400;23;20158;-88
2022/08/16 14:49:44;;;;;;;14.27;12.65;;;24.90;78.90;;;;;;6094348;23;20239;-87
2022/08/16 14:52:13;;;;;;;15.38;13.77;;;24.90;78.90;;;;;;6048589;23;20188;-89
2022/08/16 14:54:44;;;;;;;16.65;13.52;;;24.90;78.80;;;;;;6047890;23;20243;-87
2022/08/16 14:57:19;;;;;;;15.90;13.30;;;24.90;78.60;;;;;;6128443;23;20152;-88
2022/08/16 14:59:44;;;;;;;17.95;13.70;;;25.00;78.70;;;;;;6019688;23;20375;-87
2022/08/16 15:02:14;;;;;;;16.48;14.23;;;25.00;78.50;;;;;;6095104;23;20624;-88
2022/08/16 15:04:39;;;;;;;14.80;13.10;;;25.00;78.50;;;;;;6073906;23;20604;-87
2022/08/16 15:07:05;;;;;;;14.15;12.68;;;24.90;78.50;;;;;;6074083;23;20137;-88
2022/08/16 15:09:31;;;;;;;20.33;13.77;;;24.90;78.30;;;;;;6075539;23;20652;-88
2022/08/16 15:12:06;;;;;;;16.00;13.70;;;25.00;78.00;;;;;;6053839;23;20533;-87
2022/08/16 15:14:31;;;;;;;16.65;14.82;;;24.90;77.90;;;;;;6075045;23;20144;-88
2022/08/16 15:16:57;;;;;;;16.88;13.95;;;25.00;77.90;;;;;;6097590;23;20156;-88
2022/08/16 15:19:31;;;;;;;14.90;13.40;;;25.00;77.90;;;;;;6097765;23;20576;-87
2022/08/16 15:22:03;;;;;;;16.60;14.57;;;25.10;77.80;;;;;;6097184;23;20151;-87
2022/08/16 15:24:44;;;;;;;14.75;13.13;;;25.10;77.60;;;;;;6106000;23;20194;-89
2022/08/16 15:27:10;;;;;;;15.55;13.85;;;25.00;77.60;;;;;;6097536;23;20178;-86
2022/08/16 15:29:36;;;;;;;17.13;14.25;;;25.00;77.50;;;;;;6074501;23;20152;-87
2022/08/16 15:32:01;;;;;;;18.88;14.70;;;25.00;77.30;;;;;;5989670;23;20154;-87
2022/08/16 15:34:35;;;;;;;16.23;14.50;;;25.00;77.20;;;;;;5990782;23;20155;-86
2022/08/16 15:37:01;;;;;;;16.05;14.35;;;25.00;77.20;;;;;;6038945;23;20146;-86
2022/08/16 15:39:30;;;;;;;14.63;13.13;;;24.90;77.30;;;;;;6068948;23;20205;-86
2022/08/16 15:42:04;;;;;;;15.90;13.75;;;24.90;77.10;;;;;;6068955;23;20153;-88
2022/08/16 15:44:35;;;;;;;15.60;13.85;;;24.90;77.40;;;;;;6045193;23;20145;-86
2022/08/16 15:47:05;;;;;;;16.13;14.43;;;24.90;77.60;;;;;;6040752;23;20649;-87
2022/08/16 15:49:36;;;;;;;15.65;13.95;;;24.90;77.60;;;;;;5960145;24;20155;-86
2022/08/16 15:52:10;;;;;;;15.23;13.63;;;24.80;77.50;;;;;;5928864;24;20179;-88
2022/08/16 15:54:36;;;;;;;16.92;15.02;;;24.80;77.50;;;;;;5928202;24;20161;-88
2022/08/16 15:57:05;;;;;;;16.83;14.38;;;24.80;77.40;;;;;;5927771;24;20180;-89
2022/08/16 15:59:34;;;;;;;14.00;12.50;;;24.80;77.00;;;;;;5908827;24;20487;-89
2022/08/16 16:01:59;;;;;;;16.13;14.43;;;24.90;76.90;;;;;;5980937;24;20182;-88